📊 Raw Sensor Data
Showing records 43051 to 43075 of 85,010 total
| ID | Distance (ft) | Battery V | Battery A | Int Temp (°F) | Int Humid (%) | Ext Temp (°F) | Solar V | RSSI | SNR | Time Stamp |
|---|---|---|---|---|---|---|---|---|---|---|
| 41972 | 15.5 | 3.93 | 8 | 62 | 42 | 61 | 5.10 | -73 | 8 | 05/29/2025 08:30 AM |
| 41971 | 15.6 | 4.12 | 8 | 61 | 42 | 61 | 5.10 | -74 | 8 | 05/29/2025 08:15 AM |
| 41970 | 15.6 | 4.07 | 8 | 60 | 42 | 60 | 5.10 | -74 | 7 | 05/29/2025 08:00 AM |
| 41969 | 15.6 | 4.05 | 70 | 60 | 42 | 59 | 4.50 | -74 | 7 | 05/29/2025 07:45 AM |
| 41968 | 15.6 | 3.93 | 0 | 59 | 41 | 61 | 4.50 | -74 | 8 | 05/29/2025 07:30 AM |
| 41967 | 15.6 | 3.93 | 15 | 58 | 41 | 60 | 4.50 | -75 | 7 | 05/29/2025 07:15 AM |
| 41966 | 15.5 | 3.95 | 8 | 56 | 41 | 62 | 4.50 | -75 | 8 | 05/29/2025 07:00 AM |
| 41965 | 15.5 | 3.93 | 5 | 53 | 41 | 62 | 4.50 | -75 | 8 | 05/29/2025 06:45 AM |
| 41964 | 15.4 | 3.87 | 0 | 49 | 42 | 53 | 4.50 | -74 | 7 | 05/29/2025 06:15 AM |
| 41963 | 15.4 | 3.86 | -6 | 49 | 42 | 50 | 4.50 | -74 | 8 | 05/29/2025 06:00 AM |
| 41962 | 15.4 | 3.85 | -10 | 49 | 42 | 50 | 4.30 | -75 | 8 | 05/29/2025 05:45 AM |
| 41961 | 15.4 | 3.86 | -5 | 49 | 42 | 50 | 0.90 | -75 | 8 | 05/29/2025 05:30 AM |
| 41960 | 15.4 | 3.91 | -5 | 50 | 42 | 51 | 0.00 | -75 | 8 | 05/29/2025 05:15 AM |
| 41959 | 15.4 | 3.86 | -5 | 50 | 43 | 51 | 0.00 | -74 | 8 | 05/29/2025 05:00 AM |
| 41958 | 15.4 | 3.86 | -5 | 51 | 43 | 52 | 0.00 | -75 | 8 | 05/29/2025 04:45 AM |
| 41957 | 15.4 | 3.92 | -5 | 51 | 42 | 52 | 0.00 | -74 | 7 | 05/29/2025 04:30 AM |
| 41956 | 15.4 | 3.86 | -5 | 51 | 43 | 53 | 0.00 | -76 | 9 | 05/29/2025 04:15 AM |
| 41955 | 15.4 | 3.86 | -5 | 52 | 43 | 53 | 0.00 | -76 | 8 | 05/29/2025 04:00 AM |
| 41954 | 15.4 | 3.92 | -5 | 52 | 43 | 53 | 0.10 | -74 | 8 | 05/29/2025 03:45 AM |
| 41953 | 15.4 | 3.86 | -5 | 52 | 43 | 54 | 0.00 | -75 | 8 | 05/29/2025 03:30 AM |
| 41952 | 15.4 | 3.86 | -5 | 52 | 43 | 54 | 0.00 | -74 | 8 | 05/29/2025 03:15 AM |
| 41951 | 15.4 | 3.92 | -5 | 53 | 43 | 54 | 0.00 | -73 | 8 | 05/29/2025 03:00 AM |
| 41950 | 15.4 | 3.87 | -5 | 53 | 43 | 54 | 0.00 | -74 | 8 | 05/29/2025 02:45 AM |
| 41949 | 15.4 | 3.92 | -5 | 53 | 43 | 54 | 0.00 | -75 | 7 | 05/29/2025 02:30 AM |
| 41948 | 15.4 | 3.87 | -5 | 52 | 43 | 54 | 0.00 | -74 | 8 | 05/29/2025 02:15 AM |